CDT,Max TemperatureF,Mean TemperatureF,Min TemperatureF,Max Dew PointF,MeanDew PointF,Min DewpointF,Max Humidity, Mean Humidity, Min Humidity, Max Sea Level PressureIn, Mean Sea Level PressureIn, Min Sea Level PressureIn, Max VisibilityMiles, Mean VisibilityMiles, Min VisibilityMiles, Max Wind SpeedMPH, Mean Wind SpeedMPH, Max Gust SpeedMPH,PrecipitationIn, CloudCover, Events, WindDirDegrees
2012-10-1,66,54,42,46,42,37,81,62,46,29.94,29.89,29.84,10,10,10,16,5,20,0.00,1,,348
2012-10-2,69,51,33,45,36,32,100,60,25,29.98,29.92,29.86,10,10,5,9,3,,0.03,0,,162
2012-10-3,75,58,41,46,40,36,100,55,24,29.94,29.90,29.86,10,10,7,13,3,16,0.00,0,,150
2012-10-4,60,50,41,45,35,30,76,59,47,30.11,29.95,29.78,10,10,10,28,16,37,0.00,5,,243
2012-10-5,42,38,33,30,27,23,81,62,49,30.11,30.09,30.06,10,10,10,25,18,32,0.00,7,,285
2012-10-6,42,36,30,30,26,19,100,66,42,30.25,30.19,30.10,10,10,10,16,11,22,0.00,7,,318
2012-10-7,50,36,23,28,22,16,100,60,26,30.20,30.08,29.90,10,10,10,20,5,24,0.00,0,,207
2012-10-8,59,46,33,41,30,21,75,56,36,29.89,29.73,29.59,10,10,10,16,9,29,0.00,5,Rain,198
2012-10-9,46,40,35,39,32,25,93,68,46,29.94,29.79,29.72,10,10,7,22,9,28,0.04,6,Rain,265
2012-10-10,50,38,26,30,26,21,100,62,35,30.07,30.00,29.86,10,10,10,20,9,28,0.00,4,,257
2012-10-11,51,40,28,34,25,12,87,55,25,30.38,30.09,29.81,10,10,10,18,10,26,0.00,3,Rain,326
2012-10-12,50,34,19,27,18,12,100,58,22,30.44,30.33,30.06,10,10,10,16,3,21,0.00,1,,160
2012-10-13,48,44,41,48,43,30,100,94,57,30.04,29.82,29.70,10,5,1,16,8,23,0.20,8,Rain,119
2012-10-14,53,45,37,46,39,28,100,79,38,29.86,29.77,29.71,10,10,5,17,8,24,0.00,5,,2
2012-10-15,59,46,32,37,34,30,100,67,34,29.95,29.88,29.77,10,10,7,12,2,,0.00,2,,193
2012-10-16,62,54,46,46,43,37,100,68,54,29.76,29.55,29.40,10,10,7,13,8,21,0.06,3,Rain,151
2012-10-17,62,54,46,50,45,39,100,80,58,29.38,29.26,29.18,10,10,7,22,8,33,0.00,5,Rain,189
2012-10-18,46,42,37,45,42,37,100,93,76,29.37,29.24,29.17,10,7,0,8,4,,0.01,7,Fog-Rain,257
2012-10-19,51,42,32,45,39,32,100,89,58,29.73,29.59,29.42,10,7,1,10,2,,0.15,6,Rain,38
2012-10-20,51,38,26,41,34,27,100,85,54,29.84,29.79,29.72,10,7,0,8,2,,0.00,2,Fog,189
2012-10-21,64,50,35,45,41,36,100,74,42,29.90,29.85,29.80,10,8,4,14,6,22,0.00,1,,122
2012-10-22,60,53,46,50,44,43,87,68,52,29.96,29.92,29.89,10,10,10,14,7,22,0.00,7,Rain,55
2012-10-23,59,55,51,59,55,50,100,97,88,29.89,29.79,29.71,10,4,1,15,9,20,0.00,8,Rain,122
2012-10-24,59,54,50,59,55,50,100,99,94,29.85,29.79,29.72,10,4,0,13,4,17,0.13,8,Fog-Rain,353
2012-10-25,50,42,33,50,36,28,100,93,75,30.11,29.83,29.66,10,8,1,24,15,31,0.76,8,Rain-Snow,319
2012-10-26,37,34,30,28,25,21,87,69,52,30.34,30.28,30.12,10,10,10,17,11,28,0.00,6,,272
2012-10-27,42,34,26,30,24,18,100,71,36,30.36,30.32,30.29,10,10,10,10,4,,0.00,3,,231
2012-10-28,44,34,23,28,23,19,93,69,39,30.35,30.32,30.29,10,10,10,14,3,23,0.00,4,,165
2012-10-29,44,35,26,28,23,21,86,64,39,30.34,30.31,30.25,10,10,10,9,3,,0.00,4,,132
2012-10-30,46,34,23,32,23,18,100,68,32,30.25,30.15,30.05,10,10,10,16,5,21,0.00,0,,11
2012-10-31,46,32,19,23,18,12,86,58,25,30.05,29.99,29.92,10,10,10,12,6,18,0.00,1,,309